<?xml version="1.0" encoding="UTF-8" standalone="no" ?>
<gpx xmlns="http://www.topografix.com/GPX/1/1" xmlns:xsi="http://www.w3.org/2001/XMLSchema-instance" xsi:schemaLocation="http://www.topografix.com/GPX/1/1 http://www.topografix.com/GPX/1/1/gpx.xsd" version="1.1" creator="VisuGPX - https://www.visugpx.com">
  <metadata>
    <name>J4-Beaufor-Gîte Molliessoulaz-Refuge Arolles</name>
  </metadata>
  <trk>
    <name><![CDATA[J4-Beaufor-Gîte Molliessoulaz-Refuge Arolles]]></name>
    <trkseg>
      <trkpt lat="45.70764" lon="6.46247">
        <ele>950</ele>
        <time>2022-06-09T20:57:50Z</time>
      </trkpt>
      <trkpt lat="45.7073" lon="6.46304">
        <ele>956</ele>
        <time>2022-06-09T20:58:02Z</time>
      </trkpt>
      <trkpt lat="45.70662" lon="6.46381">
        <ele>968</ele>
        <time>2022-06-09T20:58:22Z</time>
      </trkpt>
      <trkpt lat="45.70625" lon="6.46395">
        <ele>978</ele>
        <time>2022-06-09T20:58:31Z</time>
      </trkpt>
      <trkpt lat="45.70652" lon="6.4629">
        <ele>979</ele>
        <time>2022-06-09T20:58:50Z</time>
      </trkpt>
      <trkpt lat="45.70655" lon="6.46202">
        <ele>984</ele>
        <time>2022-06-09T20:59:04Z</time>
      </trkpt>
      <trkpt lat="45.70649" lon="6.46141">
        <ele>994</ele>
        <time>2022-06-09T20:59:14Z</time>
      </trkpt>
      <trkpt lat="45.70626" lon="6.46161">
        <ele>999</ele>
        <time>2022-06-09T20:59:20Z</time>
      </trkpt>
      <trkpt lat="45.7059" lon="6.46243">
        <ele>1004</ele>
        <time>2022-06-09T20:59:36Z</time>
      </trkpt>
      <trkpt lat="45.70549" lon="6.46296">
        <ele>1018</ele>
        <time>2022-06-09T20:59:49Z</time>
      </trkpt>
      <trkpt lat="45.70524" lon="6.46369">
        <ele>1022</ele>
        <time>2022-06-09T21:00:02Z</time>
      </trkpt>
      <trkpt lat="45.70526" lon="6.46412">
        <ele>1015</ele>
        <time>2022-06-09T21:00:09Z</time>
      </trkpt>
      <trkpt lat="45.70481" lon="6.46603">
        <ele>1022</ele>
        <time>2022-06-09T21:00:42Z</time>
      </trkpt>
      <trkpt lat="45.70407" lon="6.46726">
        <ele>1056</ele>
        <time>2022-06-09T21:01:09Z</time>
      </trkpt>
      <trkpt lat="45.70416" lon="6.46803">
        <ele>1050</ele>
        <time>2022-06-09T21:01:21Z</time>
      </trkpt>
      <trkpt lat="45.70398" lon="6.46867">
        <ele>1059</ele>
        <time>2022-06-09T21:01:33Z</time>
      </trkpt>
      <trkpt lat="45.70387" lon="6.46937">
        <ele>1063</ele>
        <time>2022-06-09T21:01:44Z</time>
      </trkpt>
      <trkpt lat="45.70391" lon="6.46993">
        <ele>1058</ele>
        <time>2022-06-09T21:01:54Z</time>
      </trkpt>
      <trkpt lat="45.70381" lon="6.47044">
        <ele>1060</ele>
        <time>2022-06-09T21:02:02Z</time>
      </trkpt>
      <trkpt lat="45.7035" lon="6.47113">
        <ele>1063</ele>
        <time>2022-06-09T21:02:16Z</time>
      </trkpt>
      <trkpt lat="45.70305" lon="6.47132">
        <ele>1066</ele>
        <time>2022-06-09T21:02:27Z</time>
      </trkpt>
      <trkpt lat="45.70231" lon="6.47082">
        <ele>1086</ele>
        <time>2022-06-09T21:02:46Z</time>
      </trkpt>
      <trkpt lat="45.70179" lon="6.47069">
        <ele>1094</ele>
        <time>2022-06-09T21:02:58Z</time>
      </trkpt>
      <trkpt lat="45.70147" lon="6.47126">
        <ele>1089</ele>
        <time>2022-06-09T21:03:10Z</time>
      </trkpt>
      <trkpt lat="45.70111" lon="6.47155">
        <ele>1093</ele>
        <time>2022-06-09T21:03:20Z</time>
      </trkpt>
      <trkpt lat="45.70095" lon="6.4712">
        <ele>1108</ele>
        <time>2022-06-09T21:03:26Z</time>
      </trkpt>
      <trkpt lat="45.70125" lon="6.4707">
        <ele>1110</ele>
        <time>2022-06-09T21:03:37Z</time>
      </trkpt>
      <trkpt lat="45.70188" lon="6.46981">
        <ele>1122</ele>
        <time>2022-06-09T21:03:58Z</time>
      </trkpt>
      <trkpt lat="45.70247" lon="6.4697">
        <ele>1115</ele>
        <time>2022-06-09T21:04:12Z</time>
      </trkpt>
      <trkpt lat="45.70271" lon="6.46938">
        <ele>1117</ele>
        <time>2022-06-09T21:04:19Z</time>
      </trkpt>
      <trkpt lat="45.7026" lon="6.46852">
        <ele>1137</ele>
        <time>2022-06-09T21:04:34Z</time>
      </trkpt>
      <trkpt lat="45.7026" lon="6.46906">
        <ele>1128</ele>
        <time>2022-06-09T21:04:42Z</time>
      </trkpt>
      <trkpt lat="45.70242" lon="6.46935">
        <ele>1127</ele>
        <time>2022-06-09T21:04:49Z</time>
      </trkpt>
      <trkpt lat="45.7024" lon="6.46852">
        <ele>1146</ele>
        <time>2022-06-09T21:05:02Z</time>
      </trkpt>
      <trkpt lat="45.7026" lon="6.46812">
        <ele>1140</ele>
        <time>2022-06-09T21:05:10Z</time>
      </trkpt>
      <trkpt lat="45.70245" lon="6.46762">
        <ele>1151</ele>
        <time>2022-06-09T21:05:19Z</time>
      </trkpt>
      <trkpt lat="45.70233" lon="6.46551">
        <ele>1160</ele>
        <time>2022-06-09T21:05:54Z</time>
      </trkpt>
      <trkpt lat="45.70244" lon="6.46478">
        <ele>1160</ele>
        <time>2022-06-09T21:06:06Z</time>
      </trkpt>
      <trkpt lat="45.70229" lon="6.46482">
        <ele>1164</ele>
        <time>2022-06-09T21:06:09Z</time>
      </trkpt>
      <trkpt lat="45.70221" lon="6.46511">
        <ele>1166</ele>
        <time>2022-06-09T21:06:15Z</time>
      </trkpt>
      <trkpt lat="45.70216" lon="6.4658">
        <ele>1168</ele>
        <time>2022-06-09T21:06:26Z</time>
      </trkpt>
      <trkpt lat="45.70219" lon="6.46612">
        <ele>1167</ele>
        <time>2022-06-09T21:06:31Z</time>
      </trkpt>
      <trkpt lat="45.70208" lon="6.46669">
        <ele>1175</ele>
        <time>2022-06-09T21:06:41Z</time>
      </trkpt>
      <trkpt lat="45.70215" lon="6.46723">
        <ele>1170</ele>
        <time>2022-06-09T21:06:50Z</time>
      </trkpt>
      <trkpt lat="45.70207" lon="6.46783">
        <ele>1170</ele>
        <time>2022-06-09T21:07:00Z</time>
      </trkpt>
      <trkpt lat="45.70187" lon="6.46808">
        <ele>1177</ele>
        <time>2022-06-09T21:07:06Z</time>
      </trkpt>
      <trkpt lat="45.70163" lon="6.46823">
        <ele>1186</ele>
        <time>2022-06-09T21:07:12Z</time>
      </trkpt>
      <trkpt lat="45.70145" lon="6.46849">
        <ele>1185</ele>
        <time>2022-06-09T21:07:18Z</time>
      </trkpt>
      <trkpt lat="45.70124" lon="6.46863">
        <ele>1188</ele>
        <time>2022-06-09T21:07:23Z</time>
      </trkpt>
      <trkpt lat="45.70103" lon="6.4689">
        <ele>1186</ele>
        <time>2022-06-09T21:07:30Z</time>
      </trkpt>
      <trkpt lat="45.70073" lon="6.46892">
        <ele>1195</ele>
        <time>2022-06-09T21:07:37Z</time>
      </trkpt>
      <trkpt lat="45.70051" lon="6.46905">
        <ele>1196</ele>
        <time>2022-06-09T21:07:43Z</time>
      </trkpt>
      <trkpt lat="45.70031" lon="6.46906">
        <ele>1201</ele>
        <time>2022-06-09T21:07:47Z</time>
      </trkpt>
      <trkpt lat="45.70006" lon="6.46906">
        <ele>1208</ele>
        <time>2022-06-09T21:07:53Z</time>
      </trkpt>
      <trkpt lat="45.69984" lon="6.46922">
        <ele>1209</ele>
        <time>2022-06-09T21:07:59Z</time>
      </trkpt>
      <trkpt lat="45.69961" lon="6.46951">
        <ele>1208</ele>
        <time>2022-06-09T21:08:06Z</time>
      </trkpt>
      <trkpt lat="45.69948" lon="6.4694">
        <ele>1218</ele>
        <time>2022-06-09T21:08:09Z</time>
      </trkpt>
      <trkpt lat="45.69981" lon="6.469">
        <ele>1220</ele>
        <time>2022-06-09T21:08:20Z</time>
      </trkpt>
      <trkpt lat="45.7003" lon="6.46863">
        <ele>1220</ele>
        <time>2022-06-09T21:08:33Z</time>
      </trkpt>
      <trkpt lat="45.70051" lon="6.46835">
        <ele>1225</ele>
        <time>2022-06-09T21:08:39Z</time>
      </trkpt>
      <trkpt lat="45.70058" lon="6.46786">
        <ele>1235</ele>
        <time>2022-06-09T21:08:47Z</time>
      </trkpt>
      <trkpt lat="45.70084" lon="6.46759">
        <ele>1233</ele>
        <time>2022-06-09T21:08:55Z</time>
      </trkpt>
      <trkpt lat="45.70114" lon="6.46655">
        <ele>1234</ele>
        <time>2022-06-09T21:09:13Z</time>
      </trkpt>
      <trkpt lat="45.70102" lon="6.46649">
        <ele>1242</ele>
        <time>2022-06-09T21:09:16Z</time>
      </trkpt>
      <trkpt lat="45.70091" lon="6.46678">
        <ele>1245</ele>
        <time>2022-06-09T21:09:22Z</time>
      </trkpt>
      <trkpt lat="45.70063" lon="6.46707">
        <ele>1251</ele>
        <time>2022-06-09T21:09:30Z</time>
      </trkpt>
      <trkpt lat="45.70035" lon="6.46705">
        <ele>1261</ele>
        <time>2022-06-09T21:09:36Z</time>
      </trkpt>
      <trkpt lat="45.69995" lon="6.46719">
        <ele>1270</ele>
        <time>2022-06-09T21:09:46Z</time>
      </trkpt>
      <trkpt lat="45.69982" lon="6.46749">
        <ele>1266</ele>
        <time>2022-06-09T21:09:52Z</time>
      </trkpt>
      <trkpt lat="45.69972" lon="6.46763">
        <ele>1264</ele>
        <time>2022-06-09T21:09:55Z</time>
      </trkpt>
      <trkpt lat="45.69918" lon="6.46772">
        <ele>1272</ele>
        <time>2022-06-09T21:10:08Z</time>
      </trkpt>
      <trkpt lat="45.69839" lon="6.46846">
        <ele>1281</ele>
        <time>2022-06-09T21:10:30Z</time>
      </trkpt>
      <trkpt lat="45.69796" lon="6.4686">
        <ele>1283</ele>
        <time>2022-06-09T21:10:40Z</time>
      </trkpt>
      <trkpt lat="45.69718" lon="6.46864">
        <ele>1294</ele>
        <time>2022-06-09T21:10:58Z</time>
      </trkpt>
      <trkpt lat="45.69689" lon="6.46883">
        <ele>1292</ele>
        <time>2022-06-09T21:11:06Z</time>
      </trkpt>
      <trkpt lat="45.69673" lon="6.46872">
        <ele>1300</ele>
        <time>2022-06-09T21:11:10Z</time>
      </trkpt>
      <trkpt lat="45.69689" lon="6.46855">
        <ele>1305</ele>
        <time>2022-06-09T21:11:14Z</time>
      </trkpt>
      <trkpt lat="45.6972" lon="6.46842">
        <ele>1304</ele>
        <time>2022-06-09T21:11:22Z</time>
      </trkpt>
      <trkpt lat="45.69748" lon="6.46816">
        <ele>1305</ele>
        <time>2022-06-09T21:11:30Z</time>
      </trkpt>
      <trkpt lat="45.69785" lon="6.46802">
        <ele>1301</ele>
        <time>2022-06-09T21:11:39Z</time>
      </trkpt>
      <trkpt lat="45.698" lon="6.46775">
        <ele>1304</ele>
        <time>2022-06-09T21:11:44Z</time>
      </trkpt>
      <trkpt lat="45.69807" lon="6.46712">
        <ele>1316</ele>
        <time>2022-06-09T21:11:55Z</time>
      </trkpt>
      <trkpt lat="45.69833" lon="6.46668">
        <ele>1319</ele>
        <time>2022-06-09T21:12:04Z</time>
      </trkpt>
      <trkpt lat="45.69889" lon="6.46562">
        <ele>1332</ele>
        <time>2022-06-09T21:12:26Z</time>
      </trkpt>
      <trkpt lat="45.69898" lon="6.46513">
        <ele>1342</ele>
        <time>2022-06-09T21:12:34Z</time>
      </trkpt>
      <trkpt lat="45.69932" lon="6.46477">
        <ele>1333</ele>
        <time>2022-06-09T21:12:44Z</time>
      </trkpt>
      <trkpt lat="45.69936" lon="6.46454">
        <ele>1333</ele>
        <time>2022-06-09T21:12:48Z</time>
      </trkpt>
      <trkpt lat="45.69925" lon="6.46451">
        <ele>1341</ele>
        <time>2022-06-09T21:12:50Z</time>
      </trkpt>
      <trkpt lat="45.69904" lon="6.46485">
        <ele>1345</ele>
        <time>2022-06-09T21:12:58Z</time>
      </trkpt>
      <trkpt lat="45.69886" lon="6.46488">
        <ele>1352</ele>
        <time>2022-06-09T21:13:02Z</time>
      </trkpt>
      <trkpt lat="45.69845" lon="6.46546">
        <ele>1350</ele>
        <time>2022-06-09T21:13:15Z</time>
      </trkpt>
      <trkpt lat="45.69822" lon="6.46559">
        <ele>1353</ele>
        <time>2022-06-09T21:13:21Z</time>
      </trkpt>
      <trkpt lat="45.69745" lon="6.46587">
        <ele>1365</ele>
        <time>2022-06-09T21:13:40Z</time>
      </trkpt>
      <trkpt lat="45.69698" lon="6.46656">
        <ele>1362</ele>
        <time>2022-06-09T21:13:56Z</time>
      </trkpt>
      <trkpt lat="45.69594" lon="6.46723">
        <ele>1372</ele>
        <time>2022-06-09T21:14:22Z</time>
      </trkpt>
      <trkpt lat="45.69558" lon="6.46719">
        <ele>1380</ele>
        <time>2022-06-09T21:14:31Z</time>
      </trkpt>
      <trkpt lat="45.69524" lon="6.46731">
        <ele>1381</ele>
        <time>2022-06-09T21:14:39Z</time>
      </trkpt>
      <trkpt lat="45.69498" lon="6.46724">
        <ele>1387</ele>
        <time>2022-06-09T21:14:45Z</time>
      </trkpt>
      <trkpt lat="45.69463" lon="6.46768">
        <ele>1379</ele>
        <time>2022-06-09T21:14:56Z</time>
      </trkpt>
      <trkpt lat="45.69448" lon="6.4677">
        <ele>1381</ele>
        <time>2022-06-09T21:14:59Z</time>
      </trkpt>
      <trkpt lat="45.69449" lon="6.46749">
        <ele>1385</ele>
        <time>2022-06-09T21:15:03Z</time>
      </trkpt>
      <trkpt lat="45.6946" lon="6.46734">
        <ele>1389</ele>
        <time>2022-06-09T21:15:06Z</time>
      </trkpt>
      <trkpt lat="45.69493" lon="6.46698">
        <ele>1398</ele>
        <time>2022-06-09T21:15:16Z</time>
      </trkpt>
      <trkpt lat="45.69531" lon="6.46687">
        <ele>1396</ele>
        <time>2022-06-09T21:15:25Z</time>
      </trkpt>
      <trkpt lat="45.69635" lon="6.46565">
        <ele>1407</ele>
        <time>2022-06-09T21:15:56Z</time>
      </trkpt>
      <trkpt lat="45.69646" lon="6.46518">
        <ele>1416</ele>
        <time>2022-06-09T21:16:05Z</time>
      </trkpt>
      <trkpt lat="45.69679" lon="6.46464">
        <ele>1418</ele>
        <time>2022-06-09T21:16:16Z</time>
      </trkpt>
      <trkpt lat="45.69715" lon="6.46367">
        <ele>1429</ele>
        <time>2022-06-09T21:16:34Z</time>
      </trkpt>
      <trkpt lat="45.6972" lon="6.46318">
        <ele>1438</ele>
        <time>2022-06-09T21:16:42Z</time>
      </trkpt>
      <trkpt lat="45.69761" lon="6.46209">
        <ele>1437</ele>
        <time>2022-06-09T21:17:02Z</time>
      </trkpt>
      <trkpt lat="45.69742" lon="6.46163">
        <ele>1449</ele>
        <time>2022-06-09T21:17:11Z</time>
      </trkpt>
      <trkpt lat="45.6975" lon="6.4608">
        <ele>1449</ele>
        <time>2022-06-09T21:17:25Z</time>
      </trkpt>
      <trkpt lat="45.69749" lon="6.46024">
        <ele>1450</ele>
        <time>2022-06-09T21:17:34Z</time>
      </trkpt>
      <trkpt lat="45.69735" lon="6.45997">
        <ele>1460</ele>
        <time>2022-06-09T21:17:39Z</time>
      </trkpt>
      <trkpt lat="45.69727" lon="6.45859">
        <ele>1466</ele>
        <time>2022-06-09T21:18:02Z</time>
      </trkpt>
      <trkpt lat="45.69723" lon="6.45836">
        <ele>1469</ele>
        <time>2022-06-09T21:18:06Z</time>
      </trkpt>
      <trkpt lat="45.69739" lon="6.4568">
        <ele>1472</ele>
        <time>2022-06-09T21:18:32Z</time>
      </trkpt>
      <trkpt lat="45.6975" lon="6.45634">
        <ele>1466</ele>
        <time>2022-06-09T21:18:40Z</time>
      </trkpt>
      <trkpt lat="45.69749" lon="6.45602">
        <ele>1467</ele>
        <time>2022-06-09T21:18:45Z</time>
      </trkpt>
      <trkpt lat="45.69764" lon="6.45561">
        <ele>1461</ele>
        <time>2022-06-09T21:18:52Z</time>
      </trkpt>
      <trkpt lat="45.69745" lon="6.45497">
        <ele>1466</ele>
        <time>2022-06-09T21:19:04Z</time>
      </trkpt>
      <trkpt lat="45.69743" lon="6.45435">
        <ele>1460</ele>
        <time>2022-06-09T21:19:14Z</time>
      </trkpt>
      <trkpt lat="45.69719" lon="6.45373">
        <ele>1457</ele>
        <time>2022-06-09T21:19:25Z</time>
      </trkpt>
      <trkpt lat="45.69664" lon="6.45346">
        <ele>1462</ele>
        <time>2022-06-09T21:19:39Z</time>
      </trkpt>
      <trkpt lat="45.69627" lon="6.45343">
        <ele>1463</ele>
        <time>2022-06-09T21:19:48Z</time>
      </trkpt>
      <trkpt lat="45.69567" lon="6.45371">
        <ele>1477</ele>
        <time>2022-06-09T21:20:02Z</time>
      </trkpt>
      <trkpt lat="45.69422" lon="6.45449">
        <ele>1498</ele>
        <time>2022-06-09T21:20:38Z</time>
      </trkpt>
      <trkpt lat="45.69352" lon="6.45376">
        <ele>1489</ele>
        <time>2022-06-09T21:20:59Z</time>
      </trkpt>
      <trkpt lat="45.69316" lon="6.4532">
        <ele>1492</ele>
        <time>2022-06-09T21:21:11Z</time>
      </trkpt>
      <trkpt lat="45.69266" lon="6.45224">
        <ele>1498</ele>
        <time>2022-06-09T21:21:31Z</time>
      </trkpt>
      <trkpt lat="45.69239" lon="6.45218">
        <ele>1507</ele>
        <time>2022-06-09T21:21:37Z</time>
      </trkpt>
      <trkpt lat="45.69209" lon="6.45154">
        <ele>1512</ele>
        <time>2022-06-09T21:21:50Z</time>
      </trkpt>
      <trkpt lat="45.69159" lon="6.45132">
        <ele>1525</ele>
        <time>2022-06-09T21:22:02Z</time>
      </trkpt>
      <trkpt lat="45.69093" lon="6.45085">
        <ele>1529</ele>
        <time>2022-06-09T21:22:19Z</time>
      </trkpt>
      <trkpt lat="45.69059" lon="6.45057">
        <ele>1534</ele>
        <time>2022-06-09T21:22:28Z</time>
      </trkpt>
      <trkpt lat="45.6906" lon="6.45079">
        <ele>1537</ele>
        <time>2022-06-09T21:22:32Z</time>
      </trkpt>
      <trkpt lat="45.69082" lon="6.4511">
        <ele>1536</ele>
        <time>2022-06-09T21:22:39Z</time>
      </trkpt>
      <trkpt lat="45.69078" lon="6.45156">
        <ele>1546</ele>
        <time>2022-06-09T21:22:47Z</time>
      </trkpt>
      <trkpt lat="45.69105" lon="6.45218">
        <ele>1548</ele>
        <time>2022-06-09T21:22:58Z</time>
      </trkpt>
      <trkpt lat="45.69135" lon="6.45326">
        <ele>1552</ele>
        <time>2022-06-09T21:23:17Z</time>
      </trkpt>
      <trkpt lat="45.69149" lon="6.45415">
        <ele>1556</ele>
        <time>2022-06-09T21:23:32Z</time>
      </trkpt>
      <trkpt lat="45.69148" lon="6.45476">
        <ele>1554</ele>
        <time>2022-06-09T21:23:42Z</time>
      </trkpt>
      <trkpt lat="45.69158" lon="6.45517">
        <ele>1554</ele>
        <time>2022-06-09T21:23:49Z</time>
      </trkpt>
      <trkpt lat="45.69166" lon="6.4557">
        <ele>1559</ele>
        <time>2022-06-09T21:23:58Z</time>
      </trkpt>
      <trkpt lat="45.69225" lon="6.45649">
        <ele>1576</ele>
        <time>2022-06-09T21:24:17Z</time>
      </trkpt>
      <trkpt lat="45.69185" lon="6.45677">
        <ele>1587</ele>
        <time>2022-06-09T21:24:27Z</time>
      </trkpt>
      <trkpt lat="45.69121" lon="6.45688">
        <ele>1598</ele>
        <time>2022-06-09T21:24:43Z</time>
      </trkpt>
      <trkpt lat="45.68911" lon="6.45609">
        <ele>1621</ele>
        <time>2022-06-09T21:25:33Z</time>
      </trkpt>
      <trkpt lat="45.68855" lon="6.45599">
        <ele>1633</ele>
        <time>2022-06-09T21:25:46Z</time>
      </trkpt>
      <trkpt lat="45.68827" lon="6.45614">
        <ele>1643</ele>
        <time>2022-06-09T21:25:53Z</time>
      </trkpt>
      <trkpt lat="45.68763" lon="6.45602">
        <ele>1650</ele>
        <time>2022-06-09T21:26:08Z</time>
      </trkpt>
      <trkpt lat="45.68535" lon="6.45555">
        <ele>1689</ele>
        <time>2022-06-09T21:27:02Z</time>
      </trkpt>
      <trkpt lat="45.68509" lon="6.45487">
        <ele>1690</ele>
        <time>2022-06-09T21:27:15Z</time>
      </trkpt>
      <trkpt lat="45.68457" lon="6.45485">
        <ele>1699</ele>
        <time>2022-06-09T21:27:27Z</time>
      </trkpt>
      <trkpt lat="45.68422" lon="6.45478">
        <ele>1705</ele>
        <time>2022-06-09T21:27:35Z</time>
      </trkpt>
      <trkpt lat="45.68346" lon="6.45479">
        <ele>1718</ele>
        <time>2022-06-09T21:27:53Z</time>
      </trkpt>
      <trkpt lat="45.68151" lon="6.45379">
        <ele>1763</ele>
        <time>2022-06-09T21:28:41Z</time>
      </trkpt>
      <trkpt lat="45.68152" lon="6.45409">
        <ele>1774</ele>
        <time>2022-06-09T21:28:46Z</time>
      </trkpt>
      <trkpt lat="45.68098" lon="6.45381">
        <ele>1791</ele>
        <time>2022-06-09T21:29:00Z</time>
      </trkpt>
      <trkpt lat="45.68055" lon="6.45361">
        <ele>1797</ele>
        <time>2022-06-09T21:29:10Z</time>
      </trkpt>
      <trkpt lat="45.68015" lon="6.45379">
        <ele>1805</ele>
        <time>2022-06-09T21:29:20Z</time>
      </trkpt>
      <trkpt lat="45.68005" lon="6.45441">
        <ele>1808</ele>
        <time>2022-06-09T21:29:30Z</time>
      </trkpt>
      <trkpt lat="45.68013" lon="6.45551">
        <ele>1806</ele>
        <time>2022-06-09T21:29:49Z</time>
      </trkpt>
      <trkpt lat="45.68034" lon="6.45728">
        <ele>1797</ele>
        <time>2022-06-09T21:30:18Z</time>
      </trkpt>
      <trkpt lat="45.68076" lon="6.45785">
        <ele>1817</ele>
        <time>2022-06-09T21:30:31Z</time>
      </trkpt>
      <trkpt lat="45.68123" lon="6.45905">
        <ele>1827</ele>
        <time>2022-06-09T21:30:54Z</time>
      </trkpt>
      <trkpt lat="45.68122" lon="6.45932">
        <ele>1822</ele>
        <time>2022-06-09T21:30:58Z</time>
      </trkpt>
      <trkpt lat="45.68126" lon="6.45951">
        <ele>1823</ele>
        <time>2022-06-09T21:31:01Z</time>
      </trkpt>
      <trkpt lat="45.6814" lon="6.45973">
        <ele>1832</ele>
        <time>2022-06-09T21:31:06Z</time>
      </trkpt>
      <trkpt lat="45.68142" lon="6.46026">
        <ele>1829</ele>
        <time>2022-06-09T21:31:15Z</time>
      </trkpt>
      <trkpt lat="45.68134" lon="6.46086">
        <ele>1823</ele>
        <time>2022-06-09T21:31:25Z</time>
      </trkpt>
      <trkpt lat="45.68151" lon="6.46183">
        <ele>1836</ele>
        <time>2022-06-09T21:31:41Z</time>
      </trkpt>
      <trkpt lat="45.68167" lon="6.46231">
        <ele>1845</ele>
        <time>2022-06-09T21:31:50Z</time>
      </trkpt>
      <trkpt lat="45.68162" lon="6.46255">
        <ele>1843</ele>
        <time>2022-06-09T21:31:54Z</time>
      </trkpt>
      <trkpt lat="45.6817" lon="6.46304">
        <ele>1844</ele>
        <time>2022-06-09T21:32:02Z</time>
      </trkpt>
      <trkpt lat="45.68166" lon="6.46346">
        <ele>1840</ele>
        <time>2022-06-09T21:32:09Z</time>
      </trkpt>
      <trkpt lat="45.68169" lon="6.4638">
        <ele>1841</ele>
        <time>2022-06-09T21:32:15Z</time>
      </trkpt>
      <trkpt lat="45.68178" lon="6.46404">
        <ele>1845</ele>
        <time>2022-06-09T21:32:19Z</time>
      </trkpt>
      <trkpt lat="45.68178" lon="6.46428">
        <ele>1846</ele>
        <time>2022-06-09T21:32:23Z</time>
      </trkpt>
      <trkpt lat="45.68168" lon="6.46458">
        <ele>1842</ele>
        <time>2022-06-09T21:32:28Z</time>
      </trkpt>
      <trkpt lat="45.68161" lon="6.46493">
        <ele>1842</ele>
        <time>2022-06-09T21:32:34Z</time>
      </trkpt>
      <trkpt lat="45.68103" lon="6.46562">
        <ele>1824</ele>
        <time>2022-06-09T21:32:52Z</time>
      </trkpt>
      <trkpt lat="45.68096" lon="6.46605">
        <ele>1828</ele>
        <time>2022-06-09T21:32:59Z</time>
      </trkpt>
      <trkpt lat="45.68089" lon="6.46661">
        <ele>1835</ele>
        <time>2022-06-09T21:33:09Z</time>
      </trkpt>
      <trkpt lat="45.68067" lon="6.46697">
        <ele>1834</ele>
        <time>2022-06-09T21:33:16Z</time>
      </trkpt>
      <trkpt lat="45.68024" lon="6.46799">
        <ele>1842</ele>
        <time>2022-06-09T21:33:36Z</time>
      </trkpt>
      <trkpt lat="45.67998" lon="6.46868">
        <ele>1846</ele>
        <time>2022-06-09T21:33:49Z</time>
      </trkpt>
      <trkpt lat="45.67988" lon="6.46935">
        <ele>1854</ele>
        <time>2022-06-09T21:34:00Z</time>
      </trkpt>
      <trkpt lat="45.67967" lon="6.46985">
        <ele>1855</ele>
        <time>2022-06-09T21:34:09Z</time>
      </trkpt>
      <trkpt lat="45.67946" lon="6.46998">
        <ele>1845</ele>
        <time>2022-06-09T21:34:15Z</time>
      </trkpt>
      <trkpt lat="45.67943" lon="6.47041">
        <ele>1862</ele>
        <time>2022-06-09T21:34:22Z</time>
      </trkpt>
      <trkpt lat="45.67914" lon="6.47078">
        <ele>1861</ele>
        <time>2022-06-09T21:34:31Z</time>
      </trkpt>
      <trkpt lat="45.6789" lon="6.47089">
        <ele>1853</ele>
        <time>2022-06-09T21:34:37Z</time>
      </trkpt>
      <trkpt lat="45.67817" lon="6.47193">
        <ele>1840</ele>
        <time>2022-06-09T21:35:01Z</time>
      </trkpt>
      <trkpt lat="45.67812" lon="6.47266">
        <ele>1846</ele>
        <time>2022-06-09T21:35:13Z</time>
      </trkpt>
      <trkpt lat="45.6783" lon="6.4731">
        <ele>1865</ele>
        <time>2022-06-09T21:35:21Z</time>
      </trkpt>
      <trkpt lat="45.67827" lon="6.47347">
        <ele>1873</ele>
        <time>2022-06-09T21:35:27Z</time>
      </trkpt>
      <trkpt lat="45.67794" lon="6.47366">
        <ele>1863</ele>
        <time>2022-06-09T21:35:35Z</time>
      </trkpt>
      <trkpt lat="45.67787" lon="6.4739">
        <ele>1869</ele>
        <time>2022-06-09T21:35:40Z</time>
      </trkpt>
      <trkpt lat="45.67766" lon="6.47397">
        <ele>1861</ele>
        <time>2022-06-09T21:35:45Z</time>
      </trkpt>
      <trkpt lat="45.6776" lon="6.47459">
        <ele>1886</ele>
        <time>2022-06-09T21:35:55Z</time>
      </trkpt>
      <trkpt lat="45.6773" lon="6.47476">
        <ele>1889</ele>
        <time>2022-06-09T21:36:02Z</time>
      </trkpt>
      <trkpt lat="45.67651" lon="6.47463">
        <ele>1871</ele>
        <time>2022-06-09T21:36:21Z</time>
      </trkpt>
      <trkpt lat="45.67644" lon="6.47586">
        <ele>1889</ele>
        <time>2022-06-09T21:36:41Z</time>
      </trkpt>
      <trkpt lat="45.67675" lon="6.47611">
        <ele>1901</ele>
        <time>2022-06-09T21:36:49Z</time>
      </trkpt>
      <trkpt lat="45.6769" lon="6.47636">
        <ele>1906</ele>
        <time>2022-06-09T21:36:55Z</time>
      </trkpt>
      <trkpt lat="45.67692" lon="6.47667">
        <ele>1906</ele>
        <time>2022-06-09T21:37:00Z</time>
      </trkpt>
      <trkpt lat="45.67692" lon="6.47711">
        <ele>1907</ele>
        <time>2022-06-09T21:37:07Z</time>
      </trkpt>
      <trkpt lat="45.67733" lon="6.47651">
        <ele>1921</ele>
        <time>2022-06-09T21:37:21Z</time>
      </trkpt>
      <trkpt lat="45.67738" lon="6.47605">
        <ele>1921</ele>
        <time>2022-06-09T21:37:28Z</time>
      </trkpt>
      <trkpt lat="45.6775" lon="6.47701">
        <ele>1930</ele>
        <time>2022-06-09T21:37:44Z</time>
      </trkpt>
      <trkpt lat="45.67751" lon="6.47761">
        <ele>1933</ele>
        <time>2022-06-09T21:37:54Z</time>
      </trkpt>
      <trkpt lat="45.6776" lon="6.47781">
        <ele>1938</ele>
        <time>2022-06-09T21:37:58Z</time>
      </trkpt>
      <trkpt lat="45.67757" lon="6.47831">
        <ele>1941</ele>
        <time>2022-06-09T21:38:06Z</time>
      </trkpt>
      <trkpt lat="45.67747" lon="6.47879">
        <ele>1944</ele>
        <time>2022-06-09T21:38:14Z</time>
      </trkpt>
      <trkpt lat="45.67712" lon="6.48021">
        <ele>1953</ele>
        <time>2022-06-09T21:38:39Z</time>
      </trkpt>
      <trkpt lat="45.67767" lon="6.47939">
        <ele>1961</ele>
        <time>2022-06-09T21:38:57Z</time>
      </trkpt>
      <trkpt lat="45.67777" lon="6.47905">
        <ele>1960</ele>
        <time>2022-06-09T21:39:03Z</time>
      </trkpt>
      <trkpt lat="45.67789" lon="6.47906">
        <ele>1965</ele>
        <time>2022-06-09T21:39:06Z</time>
      </trkpt>
      <trkpt lat="45.67775" lon="6.47969">
        <ele>1969</ele>
        <time>2022-06-09T21:39:17Z</time>
      </trkpt>
      <trkpt lat="45.67787" lon="6.47969">
        <ele>1975</ele>
        <time>2022-06-09T21:39:20Z</time>
      </trkpt>
      <trkpt lat="45.67801" lon="6.47922">
        <ele>1972</ele>
        <time>2022-06-09T21:39:28Z</time>
      </trkpt>
      <trkpt lat="45.67832" lon="6.4789">
        <ele>1979</ele>
        <time>2022-06-09T21:39:37Z</time>
      </trkpt>
      <trkpt lat="45.67832" lon="6.47927">
        <ele>1986</ele>
        <time>2022-06-09T21:39:43Z</time>
      </trkpt>
      <trkpt lat="45.67862" lon="6.47901">
        <ele>1993</ele>
        <time>2022-06-09T21:39:51Z</time>
      </trkpt>
      <trkpt lat="45.67842" lon="6.47947">
        <ele>1995</ele>
        <time>2022-06-09T21:40:00Z</time>
      </trkpt>
      <trkpt lat="45.67788" lon="6.48086">
        <ele>2001</ele>
        <time>2022-06-09T21:40:26Z</time>
      </trkpt>
      <trkpt lat="45.6779" lon="6.48098">
        <ele>2004</ele>
        <time>2022-06-09T21:40:28Z</time>
      </trkpt>
      <trkpt lat="45.67763" lon="6.48149">
        <ele>2001</ele>
        <time>2022-06-09T21:40:39Z</time>
      </trkpt>
      <trkpt lat="45.67758" lon="6.48205">
        <ele>2012</ele>
        <time>2022-06-09T21:40:48Z</time>
      </trkpt>
      <trkpt lat="45.67734" lon="6.48231">
        <ele>2007</ele>
        <time>2022-06-09T21:40:55Z</time>
      </trkpt>
      <trkpt lat="45.67719" lon="6.48263">
        <ele>2006</ele>
        <time>2022-06-09T21:41:01Z</time>
      </trkpt>
      <trkpt lat="45.67723" lon="6.48299">
        <ele>2015</ele>
        <time>2022-06-09T21:41:07Z</time>
      </trkpt>
      <trkpt lat="45.6771" lon="6.4835">
        <ele>2019</ele>
        <time>2022-06-09T21:41:16Z</time>
      </trkpt>
      <trkpt lat="45.67701" lon="6.4836">
        <ele>2016</ele>
        <time>2022-06-09T21:41:19Z</time>
      </trkpt>
      <trkpt lat="45.67691" lon="6.48404">
        <ele>2019</ele>
        <time>2022-06-09T21:41:26Z</time>
      </trkpt>
      <trkpt lat="45.6769" lon="6.48435">
        <ele>2025</ele>
        <time>2022-06-09T21:41:31Z</time>
      </trkpt>
      <trkpt lat="45.67684" lon="6.4845">
        <ele>2025</ele>
        <time>2022-06-09T21:41:34Z</time>
      </trkpt>
      <trkpt lat="45.6769" lon="6.48458">
        <ele>2030</ele>
        <time>2022-06-09T21:41:36Z</time>
      </trkpt>
      <trkpt lat="45.67688" lon="6.48478">
        <ele>2033</ele>
        <time>2022-06-09T21:41:39Z</time>
      </trkpt>
      <trkpt lat="45.67603" lon="6.4861">
        <ele>2003</ele>
        <time>2022-06-09T21:42:08Z</time>
      </trkpt>
      <trkpt lat="45.67611" lon="6.4868">
        <ele>2011</ele>
        <time>2022-06-09T21:42:20Z</time>
      </trkpt>
      <trkpt lat="45.67584" lon="6.48782">
        <ele>2000</ele>
        <time>2022-06-09T21:42:38Z</time>
      </trkpt>
      <trkpt lat="45.67589" lon="6.48791">
        <ele>2004</ele>
        <time>2022-06-09T21:42:40Z</time>
      </trkpt>
      <trkpt lat="45.67582" lon="6.48809">
        <ele>2001</ele>
        <time>2022-06-09T21:42:43Z</time>
      </trkpt>
      <trkpt lat="45.6759" lon="6.48819">
        <ele>2007</ele>
        <time>2022-06-09T21:42:46Z</time>
      </trkpt>
      <trkpt lat="45.67583" lon="6.4883">
        <ele>2003</ele>
        <time>2022-06-09T21:42:48Z</time>
      </trkpt>
      <trkpt lat="45.67602" lon="6.4883">
        <ele>2017</ele>
        <time>2022-06-09T21:42:52Z</time>
      </trkpt>
      <trkpt lat="45.67603" lon="6.48857">
        <ele>2023</ele>
        <time>2022-06-09T21:42:57Z</time>
      </trkpt>
      <trkpt lat="45.67601" lon="6.48881">
        <ele>2026</ele>
        <time>2022-06-09T21:43:01Z</time>
      </trkpt>
      <trkpt lat="45.67588" lon="6.48927">
        <ele>2029</ele>
        <time>2022-06-09T21:43:09Z</time>
      </trkpt>
      <trkpt lat="45.67493" lon="6.49128">
        <ele>2051</ele>
        <time>2022-06-09T21:43:48Z</time>
      </trkpt>
      <trkpt lat="45.67477" lon="6.49168">
        <ele>2062</ele>
        <time>2022-06-09T21:43:56Z</time>
      </trkpt>
      <trkpt lat="45.67425" lon="6.49199">
        <ele>2049</ele>
        <time>2022-06-09T21:44:09Z</time>
      </trkpt>
      <trkpt lat="45.67395" lon="6.49259">
        <ele>2063</ele>
        <time>2022-06-09T21:44:21Z</time>
      </trkpt>
      <trkpt lat="45.67389" lon="6.49284">
        <ele>2069</ele>
        <time>2022-06-09T21:44:25Z</time>
      </trkpt>
      <trkpt lat="45.67385" lon="6.49304">
        <ele>2074</ele>
        <time>2022-06-09T21:44:29Z</time>
      </trkpt>
      <trkpt lat="45.67376" lon="6.49309">
        <ele>2072</ele>
        <time>2022-06-09T21:44:31Z</time>
      </trkpt>
      <trkpt lat="45.67364" lon="6.49313">
        <ele>2069</ele>
        <time>2022-06-09T21:44:34Z</time>
      </trkpt>
      <trkpt lat="45.67351" lon="6.49322">
        <ele>2067</ele>
        <time>2022-06-09T21:44:37Z</time>
      </trkpt>
      <trkpt lat="45.67338" lon="6.49323">
        <ele>2062</ele>
        <time>2022-06-09T21:44:40Z</time>
      </trkpt>
      <trkpt lat="45.67323" lon="6.49338">
        <ele>2063</ele>
        <time>2022-06-09T21:44:45Z</time>
      </trkpt>
      <trkpt lat="45.67313" lon="6.49342">
        <ele>2062</ele>
        <time>2022-06-09T21:44:47Z</time>
      </trkpt>
      <trkpt lat="45.67294" lon="6.49361">
        <ele>2062</ele>
        <time>2022-06-09T21:44:53Z</time>
      </trkpt>
      <trkpt lat="45.67284" lon="6.49358">
        <ele>2060</ele>
        <time>2022-06-09T21:44:55Z</time>
      </trkpt>
      <trkpt lat="45.67266" lon="6.49364">
        <ele>2057</ele>
        <time>2022-06-09T21:44:59Z</time>
      </trkpt>
      <trkpt lat="45.67239" lon="6.49377">
        <ele>2055</ele>
        <time>2022-06-09T21:45:06Z</time>
      </trkpt>
      <trkpt lat="45.67219" lon="6.49401">
        <ele>2059</ele>
        <time>2022-06-09T21:45:12Z</time>
      </trkpt>
      <trkpt lat="45.67158" lon="6.49405">
        <ele>2055</ele>
        <time>2022-06-09T21:45:26Z</time>
      </trkpt>
      <trkpt lat="45.67013" lon="6.49453">
        <ele>2089</ele>
        <time>2022-06-09T21:46:01Z</time>
      </trkpt>
      <trkpt lat="45.66982" lon="6.49457">
        <ele>2094</ele>
        <time>2022-06-09T21:46:08Z</time>
      </trkpt>
      <trkpt lat="45.66958" lon="6.49463">
        <ele>2097</ele>
        <time>2022-06-09T21:46:14Z</time>
      </trkpt>
      <trkpt lat="45.66937" lon="6.49472">
        <ele>2102</ele>
        <time>2022-06-09T21:46:19Z</time>
      </trkpt>
      <trkpt lat="45.66935" lon="6.49482">
        <ele>2106</ele>
        <time>2022-06-09T21:46:21Z</time>
      </trkpt>
      <trkpt lat="45.66744" lon="6.49561">
        <ele>2162</ele>
        <time>2022-06-09T21:47:07Z</time>
      </trkpt>
      <trkpt lat="45.66682" lon="6.49557">
        <ele>2167</ele>
        <time>2022-06-09T21:47:22Z</time>
      </trkpt>
      <trkpt lat="45.66677" lon="6.49566">
        <ele>2171</ele>
        <time>2022-06-09T21:47:24Z</time>
      </trkpt>
      <trkpt lat="45.66641" lon="6.49563">
        <ele>2179</ele>
        <time>2022-06-09T21:47:32Z</time>
      </trkpt>
      <trkpt lat="45.66617" lon="6.49561">
        <ele>2187</ele>
        <time>2022-06-09T21:47:38Z</time>
      </trkpt>
      <trkpt lat="45.6658" lon="6.49549">
        <ele>2194</ele>
        <time>2022-06-09T21:47:46Z</time>
      </trkpt>
      <trkpt lat="45.66508" lon="6.49526">
        <ele>2210</ele>
        <time>2022-06-09T21:48:04Z</time>
      </trkpt>
      <trkpt lat="45.66415" lon="6.49466">
        <ele>2224</ele>
        <time>2022-06-09T21:48:28Z</time>
      </trkpt>
      <trkpt lat="45.66371" lon="6.4944">
        <ele>2218</ele>
        <time>2022-06-09T21:48:39Z</time>
      </trkpt>
      <trkpt lat="45.66349" lon="6.49442">
        <ele>2224</ele>
        <time>2022-06-09T21:48:44Z</time>
      </trkpt>
      <trkpt lat="45.66321" lon="6.49412">
        <ele>2218</ele>
        <time>2022-06-09T21:48:52Z</time>
      </trkpt>
      <trkpt lat="45.66291" lon="6.49431">
        <ele>2214</ele>
        <time>2022-06-09T21:49:00Z</time>
      </trkpt>
      <trkpt lat="45.66261" lon="6.49424">
        <ele>2206</ele>
        <time>2022-06-09T21:49:07Z</time>
      </trkpt>
      <trkpt lat="45.66199" lon="6.49414">
        <ele>2194</ele>
        <time>2022-06-09T21:49:21Z</time>
      </trkpt>
      <trkpt lat="45.66143" lon="6.49447">
        <ele>2185</ele>
        <time>2022-06-09T21:49:35Z</time>
      </trkpt>
      <trkpt lat="45.6612" lon="6.49453">
        <ele>2184</ele>
        <time>2022-06-09T21:49:41Z</time>
      </trkpt>
      <trkpt lat="45.66081" lon="6.49508">
        <ele>2176</ele>
        <time>2022-06-09T21:49:54Z</time>
      </trkpt>
      <trkpt lat="45.66025" lon="6.49535">
        <ele>2169</ele>
        <time>2022-06-09T21:50:07Z</time>
      </trkpt>
      <trkpt lat="45.66027" lon="6.49548">
        <ele>2167</ele>
        <time>2022-06-09T21:50:10Z</time>
      </trkpt>
      <trkpt lat="45.66053" lon="6.4957">
        <ele>2166</ele>
        <time>2022-06-09T21:50:17Z</time>
      </trkpt>
      <trkpt lat="45.66058" lon="6.49586">
        <ele>2164</ele>
        <time>2022-06-09T21:50:20Z</time>
      </trkpt>
      <trkpt lat="45.66037" lon="6.49618">
        <ele>2156</ele>
        <time>2022-06-09T21:50:27Z</time>
      </trkpt>
      <trkpt lat="45.6601" lon="6.49653">
        <ele>2147</ele>
        <time>2022-06-09T21:50:35Z</time>
      </trkpt>
      <trkpt lat="45.65993" lon="6.49663">
        <ele>2142</ele>
        <time>2022-06-09T21:50:40Z</time>
      </trkpt>
      <trkpt lat="45.6597" lon="6.49703">
        <ele>2132</ele>
        <time>2022-06-09T21:50:48Z</time>
      </trkpt>
      <trkpt lat="45.65976" lon="6.4972">
        <ele>2131</ele>
        <time>2022-06-09T21:50:51Z</time>
      </trkpt>
      <trkpt lat="45.65974" lon="6.4974">
        <ele>2128</ele>
        <time>2022-06-09T21:50:54Z</time>
      </trkpt>
      <trkpt lat="45.65985" lon="6.49754">
        <ele>2128</ele>
        <time>2022-06-09T21:50:58Z</time>
      </trkpt>
      <trkpt lat="45.65977" lon="6.49771">
        <ele>2126</ele>
        <time>2022-06-09T21:51:01Z</time>
      </trkpt>
      <trkpt lat="45.6595" lon="6.49783">
        <ele>2121</ele>
        <time>2022-06-09T21:51:08Z</time>
      </trkpt>
      <trkpt lat="45.65953" lon="6.49805">
        <ele>2120</ele>
        <time>2022-06-09T21:51:11Z</time>
      </trkpt>
      <trkpt lat="45.65947" lon="6.49817">
        <ele>2119</ele>
        <time>2022-06-09T21:51:14Z</time>
      </trkpt>
      <trkpt lat="45.65952" lon="6.49834">
        <ele>2119</ele>
        <time>2022-06-09T21:51:17Z</time>
      </trkpt>
      <trkpt lat="45.65958" lon="6.49868">
        <ele>2124</ele>
        <time>2022-06-09T21:51:23Z</time>
      </trkpt>
      <trkpt lat="45.65946" lon="6.49884">
        <ele>2125</ele>
        <time>2022-06-09T21:51:26Z</time>
      </trkpt>
      <trkpt lat="45.65922" lon="6.49889">
        <ele>2124</ele>
        <time>2022-06-09T21:51:32Z</time>
      </trkpt>
      <trkpt lat="45.6589" lon="6.49877">
        <ele>2118</ele>
        <time>2022-06-09T21:51:40Z</time>
      </trkpt>
      <trkpt lat="45.65856" lon="6.49893">
        <ele>2115</ele>
        <time>2022-06-09T21:51:48Z</time>
      </trkpt>
      <trkpt lat="45.65806" lon="6.49881">
        <ele>2107</ele>
        <time>2022-06-09T21:52:00Z</time>
      </trkpt>
      <trkpt lat="45.65789" lon="6.49869">
        <ele>2105</ele>
        <time>2022-06-09T21:52:04Z</time>
      </trkpt>
      <trkpt lat="45.65708" lon="6.49794">
        <ele>2087</ele>
        <time>2022-06-09T21:52:27Z</time>
      </trkpt>
      <trkpt lat="45.65655" lon="6.49772">
        <ele>2077</ele>
        <time>2022-06-09T21:52:40Z</time>
      </trkpt>
      <trkpt lat="45.65637" lon="6.4978">
        <ele>2074</ele>
        <time>2022-06-09T21:52:44Z</time>
      </trkpt>
      <trkpt lat="45.65614" lon="6.49771">
        <ele>2069</ele>
        <time>2022-06-09T21:52:50Z</time>
      </trkpt>
      <trkpt lat="45.65603" lon="6.49806">
        <ele>2067</ele>
        <time>2022-06-09T21:52:56Z</time>
      </trkpt>
      <trkpt lat="45.65505" lon="6.49827">
        <ele>2038</ele>
        <time>2022-06-09T21:53:19Z</time>
      </trkpt>
      <trkpt lat="45.65467" lon="6.49821">
        <ele>2026</ele>
        <time>2022-06-09T21:53:28Z</time>
      </trkpt>
      <trkpt lat="45.65444" lon="6.49836">
        <ele>2020</ele>
        <time>2022-06-09T21:53:34Z</time>
      </trkpt>
      <trkpt lat="45.65445" lon="6.49871">
        <ele>2015</ele>
        <time>2022-06-09T21:53:40Z</time>
      </trkpt>
      <trkpt lat="45.65424" lon="6.49924">
        <ele>2002</ele>
        <time>2022-06-09T21:53:50Z</time>
      </trkpt>
      <trkpt lat="45.65441" lon="6.4995">
        <ele>1997</ele>
        <time>2022-06-09T21:53:56Z</time>
      </trkpt>
      <trkpt lat="45.65396" lon="6.49994">
        <ele>1976</ele>
        <time>2022-06-09T21:54:08Z</time>
      </trkpt>
      <trkpt lat="45.65436" lon="6.50021">
        <ele>1974</ele>
        <time>2022-06-09T21:54:19Z</time>
      </trkpt>
      <trkpt lat="45.65471" lon="6.50076">
        <ele>1957</ele>
        <time>2022-06-09T21:54:31Z</time>
      </trkpt>
      <trkpt lat="45.65448" lon="6.50112">
        <ele>1944</ele>
        <time>2022-06-09T21:54:39Z</time>
      </trkpt>
      <trkpt lat="45.65431" lon="6.50155">
        <ele>1929</ele>
        <time>2022-06-09T21:54:47Z</time>
      </trkpt>
      <trkpt lat="45.65398" lon="6.50188">
        <ele>1910</ele>
        <time>2022-06-09T21:54:56Z</time>
      </trkpt>
      <trkpt lat="45.65392" lon="6.50238">
        <ele>1892</ele>
        <time>2022-06-09T21:55:04Z</time>
      </trkpt>
      <trkpt lat="45.65354" lon="6.50258">
        <ele>1884</ele>
        <time>2022-06-09T21:55:14Z</time>
      </trkpt>
      <trkpt lat="45.6539" lon="6.50311">
        <ele>1868</ele>
        <time>2022-06-09T21:55:26Z</time>
      </trkpt>
      <trkpt lat="45.65423" lon="6.503">
        <ele>1875</ele>
        <time>2022-06-09T21:55:34Z</time>
      </trkpt>
      <trkpt lat="45.65422" lon="6.50331">
        <ele>1865</ele>
        <time>2022-06-09T21:55:39Z</time>
      </trkpt>
      <trkpt lat="45.65441" lon="6.50374">
        <ele>1871</ele>
        <time>2022-06-09T21:55:47Z</time>
      </trkpt>
      <trkpt lat="45.6543" lon="6.50409">
        <ele>1865</ele>
        <time>2022-06-09T21:55:53Z</time>
      </trkpt>
      <trkpt lat="45.65412" lon="6.50466">
        <ele>1859</ele>
        <time>2022-06-09T21:56:04Z</time>
      </trkpt>
      <trkpt lat="45.65409" lon="6.50505">
        <ele>1858</ele>
        <time>2022-06-09T21:56:10Z</time>
      </trkpt>
      <trkpt lat="45.65408" lon="6.50556">
        <ele>1859</ele>
        <time>2022-06-09T21:56:18Z</time>
      </trkpt>
      <trkpt lat="45.65395" lon="6.50632">
        <ele>1863</ele>
        <time>2022-06-09T21:56:31Z</time>
      </trkpt>
      <trkpt lat="45.6538" lon="6.50672">
        <ele>1862</ele>
        <time>2022-06-09T21:56:39Z</time>
      </trkpt>
      <trkpt lat="45.65358" lon="6.50718">
        <ele>1859</ele>
        <time>2022-06-09T21:56:48Z</time>
      </trkpt>
      <trkpt lat="45.65344" lon="6.5077">
        <ele>1858</ele>
        <time>2022-06-09T21:56:57Z</time>
      </trkpt>
      <trkpt lat="45.65351" lon="6.50918">
        <ele>1860</ele>
        <time>2022-06-09T21:57:21Z</time>
      </trkpt>
      <trkpt lat="45.65388" lon="6.51069">
        <ele>1868</ele>
        <time>2022-06-09T21:57:47Z</time>
      </trkpt>
      <trkpt lat="45.65423" lon="6.51208">
        <ele>1872</ele>
        <time>2022-06-09T21:58:11Z</time>
      </trkpt>
      <trkpt lat="45.65487" lon="6.51362">
        <ele>1882</ele>
        <time>2022-06-09T21:58:41Z</time>
      </trkpt>
      <trkpt lat="45.6554" lon="6.51549">
        <ele>1885</ele>
        <time>2022-06-09T21:59:13Z</time>
      </trkpt>
      <trkpt lat="45.65559" lon="6.51675">
        <ele>1885</ele>
        <time>2022-06-09T21:59:34Z</time>
      </trkpt>
      <trkpt lat="45.65564" lon="6.51752">
        <ele>1880</ele>
        <time>2022-06-09T21:59:47Z</time>
      </trkpt>
      <trkpt lat="45.65562" lon="6.51776">
        <ele>1879</ele>
        <time>2022-06-09T21:59:51Z</time>
      </trkpt>
      <trkpt lat="45.65545" lon="6.51782">
        <ele>1880</ele>
        <time>2022-06-09T21:59:55Z</time>
      </trkpt>
      <trkpt lat="45.65554" lon="6.51815">
        <ele>1879</ele>
        <time>2022-06-09T22:00:01Z</time>
      </trkpt>
      <trkpt lat="45.65538" lon="6.51858">
        <ele>1884</ele>
        <time>2022-06-09T22:00:09Z</time>
      </trkpt>
      <trkpt lat="45.65526" lon="6.51894">
        <ele>1891</ele>
        <time>2022-06-09T22:00:15Z</time>
      </trkpt>
      <trkpt lat="45.65523" lon="6.51925">
        <ele>1895</ele>
        <time>2022-06-09T22:00:20Z</time>
      </trkpt>
      <trkpt lat="45.65515" lon="6.51951">
        <ele>1901</ele>
        <time>2022-06-09T22:00:25Z</time>
      </trkpt>
      <trkpt lat="45.6552" lon="6.51979">
        <ele>1902</ele>
        <time>2022-06-09T22:00:30Z</time>
      </trkpt>
      <trkpt lat="45.65509" lon="6.52037">
        <ele>1916</ele>
        <time>2022-06-09T22:00:40Z</time>
      </trkpt>
      <trkpt lat="45.65547" lon="6.52104">
        <ele>1903</ele>
        <time>2022-06-09T22:00:54Z</time>
      </trkpt>
      <trkpt lat="45.6555" lon="6.52158">
        <ele>1908</ele>
        <time>2022-06-09T22:01:03Z</time>
      </trkpt>
      <trkpt lat="45.6557" lon="6.52212">
        <ele>1903</ele>
        <time>2022-06-09T22:01:13Z</time>
      </trkpt>
      <trkpt lat="45.65616" lon="6.52269">
        <ele>1883</ele>
        <time>2022-06-09T22:01:27Z</time>
      </trkpt>
      <trkpt lat="45.65604" lon="6.52366">
        <ele>1896</ele>
        <time>2022-06-09T22:01:43Z</time>
      </trkpt>
      <trkpt lat="45.65597" lon="6.52454">
        <ele>1897</ele>
        <time>2022-06-09T22:01:57Z</time>
      </trkpt>
      <trkpt lat="45.65616" lon="6.5255">
        <ele>1882</ele>
        <time>2022-06-09T22:02:14Z</time>
      </trkpt>
      <trkpt lat="45.6561" lon="6.52596">
        <ele>1884</ele>
        <time>2022-06-09T22:02:21Z</time>
      </trkpt>
      <trkpt lat="45.65632" lon="6.52659">
        <ele>1872</ele>
        <time>2022-06-09T22:02:33Z</time>
      </trkpt>
      <trkpt lat="45.65662" lon="6.52725">
        <ele>1859</ele>
        <time>2022-06-09T22:02:46Z</time>
      </trkpt>
      <trkpt lat="45.65676" lon="6.52795">
        <ele>1851</ele>
        <time>2022-06-09T22:02:57Z</time>
      </trkpt>
      <trkpt lat="45.65698" lon="6.52851">
        <ele>1841</ele>
        <time>2022-06-09T22:03:08Z</time>
      </trkpt>
      <trkpt lat="45.65689" lon="6.5289">
        <ele>1844</ele>
        <time>2022-06-09T22:03:15Z</time>
      </trkpt>
      <trkpt lat="45.65684" lon="6.52944">
        <ele>1850</ele>
        <time>2022-06-09T22:03:24Z</time>
      </trkpt>
      <trkpt lat="45.65666" lon="6.5294">
        <ele>1859</ele>
        <time>2022-06-09T22:03:28Z</time>
      </trkpt>
      <trkpt lat="45.65662" lon="6.52968">
        <ele>1867</ele>
        <time>2022-06-09T22:03:32Z</time>
      </trkpt>
      <trkpt lat="45.65662" lon="6.52987">
        <ele>1870</ele>
        <time>2022-06-09T22:03:36Z</time>
      </trkpt>
      <trkpt lat="45.65668" lon="6.53018">
        <ele>1871</ele>
        <time>2022-06-09T22:03:41Z</time>
      </trkpt>
      <trkpt lat="45.6566" lon="6.53012">
        <ele>1876</ele>
        <time>2022-06-09T22:03:43Z</time>
      </trkpt>
      <trkpt lat="45.6566" lon="6.53023">
        <ele>1878</ele>
        <time>2022-06-09T22:03:45Z</time>
      </trkpt>
      <trkpt lat="45.65643" lon="6.53012">
        <ele>1888</ele>
        <time>2022-06-09T22:03:49Z</time>
      </trkpt>
      <trkpt lat="45.65645" lon="6.53006">
        <ele>1886</ele>
        <time>2022-06-09T22:03:50Z</time>
      </trkpt>
      <trkpt lat="45.65641" lon="6.53023">
        <ele>1892</ele>
        <time>2022-06-09T22:03:53Z</time>
      </trkpt>
      <trkpt lat="45.65633" lon="6.53023">
        <ele>1897</ele>
        <time>2022-06-09T22:03:55Z</time>
      </trkpt>
      <trkpt lat="45.65629" lon="6.53032">
        <ele>1901</ele>
        <time>2022-06-09T22:03:57Z</time>
      </trkpt>
      <trkpt lat="45.65639" lon="6.53061">
        <ele>1899</ele>
        <time>2022-06-09T22:04:02Z</time>
      </trkpt>
      <trkpt lat="45.6564" lon="6.53073">
        <ele>1901</ele>
        <time>2022-06-09T22:04:04Z</time>
      </trkpt>
      <trkpt lat="45.65657" lon="6.53109">
        <ele>1895</ele>
        <time>2022-06-09T22:04:11Z</time>
      </trkpt>
      <trkpt lat="45.65656" lon="6.53157">
        <ele>1901</ele>
        <time>2022-06-09T22:04:19Z</time>
      </trkpt>
      <trkpt lat="45.6565" lon="6.5318">
        <ele>1902</ele>
        <time>2022-06-09T22:04:23Z</time>
      </trkpt>
      <trkpt lat="45.65642" lon="6.5318">
        <ele>1904</ele>
        <time>2022-06-09T22:04:25Z</time>
      </trkpt>
      <trkpt lat="45.65635" lon="6.53188">
        <ele>1904</ele>
        <time>2022-06-09T22:04:27Z</time>
      </trkpt>
      <trkpt lat="45.65642" lon="6.5322">
        <ele>1899</ele>
        <time>2022-06-09T22:04:32Z</time>
      </trkpt>
      <trkpt lat="45.65646" lon="6.53271">
        <ele>1894</ele>
        <time>2022-06-09T22:04:41Z</time>
      </trkpt>
      <trkpt lat="45.65685" lon="6.53344">
        <ele>1885</ele>
        <time>2022-06-09T22:04:56Z</time>
      </trkpt>
    </trkseg>
  </trk>
</gpx>